sensor_id;sensor_type;location;lat;lon;timestamp;pressure;altitude;pressure_sealevel;temperature;humidity
29359;BME280;16347;53.232;6.556;2023-05-07T00:00:49;101768.34;;;16.44;63.23
29359;BME280;16347;53.232;6.556;2023-05-07T00:03:17;101769.16;;;16.53;63.14
29359;BME280;16347;53.232;6.556;2023-05-07T00:05:46;101766.09;;;16.48;63.63
29359;BME280;16347;53.232;6.556;2023-05-07T00:08:16;101767.31;;;16.45;63.32
29359;BME280;16347;53.232;6.556;2023-05-07T00:10:44;101768.34;;;16.44;63.49
29359;BME280;16347;53.232;6.556;2023-05-07T00:13:13;101769.34;;;16.43;63.20
29359;BME280;16347;53.232;6.556;2023-05-07T00:15:41;101772.81;;;16.37;63.26
29359;BME280;16347;53.232;6.556;2023-05-07T00:18:11;101777.44;;;16.36;63.34
29359;BME280;16347;53.232;6.556;2023-05-07T00:20:40;101786.34;;;16.38;63.67
29359;BME280;16347;53.232;6.556;2023-05-07T00:23:08;101777.28;;;16.38;63.37
29359;BME280;16347;53.232;6.556;2023-05-07T00:25:38;101783.63;;;16.30;63.18
29359;BME280;16347;53.232;6.556;2023-05-07T00:28:06;101782.59;;;16.31;63.25
29359;BME280;16347;53.232;6.556;2023-05-07T00:30:34;101785.00;;;16.34;63.61
29359;BME280;16347;53.232;6.556;2023-05-07T00:33:02;101788.59;;;16.35;63.38
29359;BME280;16347;53.232;6.556;2023-05-07T00:35:30;101786.88;;;16.34;63.69
29359;BME280;16347;53.232;6.556;2023-05-07T00:37:59;101791.50;;;16.33;63.90
29359;BME280;16347;53.232;6.556;2023-05-07T00:40:27;101785.66;;;16.36;63.46
29359;BME280;16347;53.232;6.556;2023-05-07T00:42:56;101783.28;;;16.33;63.65
29359;BME280;16347;53.232;6.556;2023-05-07T00:45:26;101777.63;;;16.35;63.70
29359;BME280;16347;53.232;6.556;2023-05-07T00:47:56;101786.53;;;16.37;63.60
29359;BME280;16347;53.232;6.556;2023-05-07T00:50:25;101788.59;;;16.35;63.52
29359;BME280;16347;53.232;6.556;2023-05-07T00:52:54;101785.34;;;16.31;63.42
29359;BME280;16347;53.232;6.556;2023-05-07T00:55:23;101792.00;;;16.29;63.66
29359;BME280;16347;53.232;6.556;2023-05-07T00:57:51;101782.25;;;16.26;63.82
29359;BME280;16347;53.232;6.556;2023-05-07T01:00:21;101794.09;;;16.27;64.07
29359;BME280;16347;53.232;6.556;2023-05-07T01:02:49;101788.75;;;16.25;63.82
29359;BME280;16347;53.232;6.556;2023-05-07T01:05:18;101789.47;;;16.27;63.90
29359;BME280;16347;53.232;6.556;2023-05-07T01:07:50;101783.47;;;16.24;64.15
29359;BME280;16347;53.232;6.556;2023-05-07T01:10:19;101783.63;;;16.22;64.05
29359;BME280;16347;53.232;6.556;2023-05-07T01:12:48;101785.69;;;16.20;64.12
29359;BME280;16347;53.232;6.556;2023-05-07T01:15:17;101787.22;;;16.23;64.22
29359;BME280;16347;53.232;6.556;2023-05-07T01:17:47;101783.63;;;16.22;64.19
29359;BME280;16347;53.232;6.556;2023-05-07T01:20:22;101789.28;;;16.21;64.44
29359;BME280;16347;53.232;6.556;2023-05-07T01:22:54;101783.63;;;16.22;64.81
29359;BME280;16347;53.232;6.556;2023-05-07T01:25:22;101790.16;;;16.13;64.47
29359;BME280;16347;53.232;6.556;2023-05-07T01:27:53;101789.81;;;16.16;64.70
29359;BME280;16347;53.232;6.556;2023-05-07T01:30:26;101783.28;;;16.09;64.26
29359;BME280;16347;53.232;6.556;2023-05-07T01:32:58;101779.00;;;16.07;64.99
29359;BME280;16347;53.232;6.556;2023-05-07T01:35:32;101784.34;;;16.08;64.75
29359;BME280;16347;53.232;6.556;2023-05-07T01:38:03;101789.31;;;16.05;65.06
29359;BME280;16347;53.232;6.556;2023-05-07T01:40:33;101779.69;;;16.01;65.04
29359;BME280;16347;53.232;6.556;2023-05-07T01:43:02;101781.56;;;16.00;65.14
29359;BME280;16347;53.232;6.556;2023-05-07T01:45:34;101783.31;;;16.01;65.04
29359;BME280;16347;53.232;6.556;2023-05-07T01:48:03;101788.44;;;15.96;65.22
29359;BME280;16347;53.232;6.556;2023-05-07T01:50:32;101786.19;;;15.91;64.92
29359;BME280;16347;53.232;6.556;2023-05-07T01:53:03;101787.75;;;15.86;64.91
29359;BME280;16347;53.232;6.556;2023-05-07T01:55:31;101790.66;;;15.84;64.88
29359;BME280;16347;53.232;6.556;2023-05-07T01:58:00;101789.09;;;15.82;65.28
29359;BME280;16347;53.232;6.556;2023-05-07T02:00:28;101790.97;;;15.81;65.38
29359;BME280;16347;53.232;6.556;2023-05-07T02:02:57;101787.03;;;15.76;65.42
29359;BME280;16347;53.232;6.556;2023-05-07T02:05:46;101788.75;;;15.85;65.99
29359;BME280;16347;53.232;6.556;2023-05-07T02:08:29;101788.94;;;15.83;65.37
29359;BME280;16347;53.232;6.556;2023-05-07T02:10:57;101783.97;;;15.79;65.28
29359;BME280;16347;53.232;6.556;2023-05-07T02:13:29;101786.19;;;15.83;65.50
29359;BME280;16347;53.232;6.556;2023-05-07T02:15:58;101789.97;;;15.90;65.64
29359;BME280;16347;53.232;6.556;2023-05-07T02:18:27;101781.41;;;15.94;65.59
29359;BME280;16347;53.232;6.556;2023-05-07T02:20:55;101784.81;;;15.96;65.66
29359;BME280;16347;53.232;6.556;2023-05-07T02:23:23;101776.44;;;15.97;65.48
29359;BME280;16347;53.232;6.556;2023-05-07T02:25:53;101784.66;;;15.97;64.95
29359;BME280;16347;53.232;6.556;2023-05-07T02:28:21;101776.59;;;15.96;65.08
29359;BME280;16347;53.232;6.556;2023-05-07T02:31:02;101778.66;;;15.85;64.92
29359;BME280;16347;53.232;6.556;2023-05-07T02:33:31;101787.75;;;15.86;65.18
29359;BME280;16347;53.232;6.556;2023-05-07T02:36:06;101786.00;;;15.85;65.61
29359;BME280;16347;53.232;6.556;2023-05-07T02:38:36;101791.34;;;15.86;65.61
29359;BME280;16347;53.232;6.556;2023-05-07T02:41:05;101799.06;;;15.91;65.53
29359;BME280;16347;53.232;6.556;2023-05-07T02:43:33;101790.66;;;15.93;65.40
29359;BME280;16347;53.232;6.556;2023-05-07T02:46:02;101793.59;;;15.91;64.85
29359;BME280;16347;53.232;6.556;2023-05-07T02:48:32;101794.59;;;15.90;65.11
29359;BME280;16347;53.232;6.556;2023-05-07T02:51:03;101800.75;;;15.92;65.16
29359;BME280;16347;53.232;6.556;2023-05-07T02:53:32;101795.28;;;15.92;65.30
29359;BME280;16347;53.232;6.556;2023-05-07T02:56:01;101794.25;;;15.93;65.05
29359;BME280;16347;53.232;6.556;2023-05-07T02:58:30;101802.97;;;15.88;65.02
29359;BME280;16347;53.232;6.556;2023-05-07T03:01:00;101801.97;;;15.89;65.32
29359;BME280;16347;53.232;6.556;2023-05-07T03:03:33;101793.94;;;15.88;65.60
29359;BME280;16347;53.232;6.556;2023-05-07T03:06:02;101785.50;;;15.89;65.29
29359;BME280;16347;53.232;6.556;2023-05-07T03:08:30;101794.59;;;15.90;65.29
29359;BME280;16347;53.232;6.556;2023-05-07T03:10:58;101792.53;;;15.84;64.99
29359;BME280;16347;53.232;6.556;2023-05-07T03:13:27;101790.97;;;15.81;65.17
29359;BME280;16347;53.232;6.556;2023-05-07T03:15:56;101789.78;;;15.68;65.10
29359;BME280;16347;53.232;6.556;2023-05-07T03:18:24;101784.63;;;15.65;65.14
29359;BME280;16347;53.232;6.556;2023-05-07T03:20:53;101785.47;;;15.65;65.54
29359;BME280;16347;53.232;6.556;2023-05-07T03:23:21;101791.81;;;15.66;65.20
29359;BME280;16347;53.232;6.556;2023-05-07T03:25:50;101787.19;;;15.66;65.41
29359;BME280;16347;53.232;6.556;2023-05-07T03:28:19;101784.63;;;15.65;65.13
29359;BME280;16347;53.232;6.556;2023-05-07T03:30:53;101783.44;;;15.67;65.47
29359;BME280;16347;53.232;6.556;2023-05-07T03:33:23;101780.84;;;15.66;65.44
29359;BME280;16347;53.232;6.556;2023-05-07T03:35:51;101788.22;;;15.65;65.79
29359;BME280;16347;53.232;6.556;2023-05-07T03:38:23;101775.03;;;15.61;65.27
29359;BME280;16347;53.232;6.556;2023-05-07T03:40:51;101782.41;;;15.60;65.50
29359;BME280;16347;53.232;6.556;2023-05-07T03:43:20;101781.88;;;15.57;65.26
29359;BME280;16347;53.232;6.556;2023-05-07T03:45:55;101774.94;;;15.45;65.40
29359;BME280;16347;53.232;6.556;2023-05-07T03:48:27;101784.38;;;15.34;65.41
29359;BME280;16347;53.232;6.556;2023-05-07T03:50:57;101782.78;;;15.31;65.68
29359;BME280;16347;53.232;6.556;2023-05-07T03:53:29;101772.22;;;15.36;65.71
29359;BME280;16347;53.232;6.556;2023-05-07T03:55:57;101787.13;;;15.42;65.65
29359;BME280;16347;53.232;6.556;2023-05-07T03:58:26;101789.84;;;15.42;65.45
29359;BME280;16347;53.232;6.556;2023-05-07T04:00:57;101798.56;;;15.29;65.65
29359;BME280;16347;53.232;6.556;2023-05-07T04:03:28;101811.19;;;15.22;65.16
29359;BME280;16347;53.232;6.556;2023-05-07T04:05:58;101806.25;;;15.26;65.42
29359;BME280;16347;53.232;6.556;2023-05-07T04:08:26;101805.44;;;15.33;65.88
29359;BME280;16347;53.232;6.556;2023-05-07T04:10:55;101803.38;;;15.35;65.70
29359;BME280;16347;53.232;6.556;2023-05-07T04:13:25;101810.25;;;15.39;65.24
29359;BME280;16347;53.232;6.556;2023-05-07T04:15:55;101814.53;;;15.42;65.50
29359;BME280;16347;53.232;6.556;2023-05-07T04:18:25;101819.88;;;15.52;65.25
29359;BME280;16347;53.232;6.556;2023-05-07T04:20:54;101811.28;;;15.47;64.99
29359;BME280;16347;53.232;6.556;2023-05-07T04:23:22;101817.25;;;15.42;65.25
29359;BME280;16347;53.232;6.556;2023-05-07T04:25:51;101830.25;;;15.32;64.84
29359;BME280;16347;53.232;6.556;2023-05-07T04:28:23;101827.31;;;15.25;64.97
29359;BME280;16347;53.232;6.556;2023-05-07T04:30:53;101830.56;;;15.21;65.72
29359;BME280;16347;53.232;6.556;2023-05-07T04:33:22;101826.63;;;15.23;65.70
29359;BME280;16347;53.232;6.556;2023-05-07T04:35:58;101819.75;;;15.19;65.67
29359;BME280;16347;53.232;6.556;2023-05-07T04:38:30;101821.16;;;15.23;65.53
29359;BME280;16347;53.232;6.556;2023-05-07T04:41:03;101826.44;;;15.17;65.61
29359;BME280;16347;53.232;6.556;2023-05-07T04:43:34;101820.03;;;15.08;65.07
29359;BME280;16347;53.232;6.556;2023-05-07T04:46:03;101823.63;;;15.01;65.55
29359;BME280;16347;53.232;6.556;2023-05-07T04:48:33;101824.34;;;15.11;65.44
29359;BME280;16347;53.232;6.556;2023-05-07T04:51:04;101826.06;;;15.12;65.49
29359;BME280;16347;53.232;6.556;2023-05-07T04:53:33;101823.81;;;15.07;65.09
29359;BME280;16347;53.232;6.556;2023-05-07T04:56:01;101826.19;;;15.02;65.17
29359;BME280;16347;53.232;6.556;2023-05-07T04:58:36;101827.19;;;15.01;65.69
29359;BME280;16347;53.232;6.556;2023-05-07T05:01:06;101827.72;;;15.05;65.37
29359;BME280;16347;53.232;6.556;2023-05-07T05:03:34;101828.06;;;15.02;65.69
29359;BME280;16347;53.232;6.556;2023-05-07T05:06:03;101836.78;;;14.97;65.31
29359;BME280;16347;53.232;6.556;2023-05-07T05:08:34;101825.66;;;14.99;65.24
29359;BME280;16347;53.232;6.556;2023-05-07T05:11:03;101833.50;;;14.94;65.19
29359;BME280;16347;53.232;6.556;2023-05-07T05:13:33;101834.34;;;14.94;65.68
29359;BME280;16347;53.232;6.556;2023-05-07T05:16:08;101836.47;;;15.00;65.66
29359;BME280;16347;53.232;6.556;2023-05-07T05:18:37;101839.00;;;15.02;65.55
29359;BME280;16347;53.232;6.556;2023-05-07T05:21:05;101836.13;;;15.03;65.69
29359;BME280;16347;53.232;6.556;2023-05-07T05:23:35;101837.13;;;15.02;65.31
29359;BME280;16347;53.232;6.556;2023-05-07T05:26:03;101843.16;;;15.06;65.27
29359;BME280;16347;53.232;6.556;2023-05-07T05:28:33;101845.88;;;15.06;65.46
29359;BME280;16347;53.232;6.556;2023-05-07T05:31:02;101851.91;;;15.09;65.48
29359;BME280;16347;53.232;6.556;2023-05-07T05:33:33;101855.66;;;15.08;64.69
29359;BME280;16347;53.232;6.556;2023-05-07T05:36:04;101862.78;;;15.01;65.01
29359;BME280;16347;53.232;6.556;2023-05-07T05:38:33;101870.13;;;14.93;64.99
29359;BME280;16347;53.232;6.556;2023-05-07T05:41:02;101866.84;;;14.89;65.19
29359;BME280;16347;53.232;6.556;2023-05-07T05:43:30;101874.41;;;14.95;65.15
29359;BME280;16347;53.232;6.556;2023-05-07T05:45:59;101870.03;;;14.76;64.94
29359;BME280;16347;53.232;6.556;2023-05-07T05:48:28;101875.09;;;14.71;65.45
29359;BME280;16347;53.232;6.556;2023-05-07T05:50:59;101868.69;;;14.80;65.61
29359;BME280;16347;53.232;6.556;2023-05-07T05:53:28;101870.88;;;14.77;65.63
29359;BME280;16347;53.232;6.556;2023-05-07T05:55:56;101873.22;;;14.72;65.22
29359;BME280;16347;53.232;6.556;2023-05-07T05:58:25;101874.00;;;14.82;65.58
29359;BME280;16347;53.232;6.556;2023-05-07T06:00:58;101869.44;;;14.91;65.22
29359;BME280;16347;53.232;6.556;2023-05-07T06:03:29;101871.84;;;14.94;65.62
29359;BME280;16347;53.232;6.556;2023-05-07T06:06:02;101860.38;;;14.98;65.22
29359;BME280;16347;53.232;6.556;2023-05-07T06:08:31;101853.50;;;14.94;64.90
29359;BME280;16347;53.232;6.556;2023-05-07T06:11:01;101859.53;;;14.98;64.94
29359;BME280;16347;53.232;6.556;2023-05-07T06:13:33;101860.91;;;14.94;65.50
29359;BME280;16347;53.232;6.556;2023-05-07T06:16:01;101864.31;;;14.96;65.13
29359;BME280;16347;53.232;6.556;2023-05-07T06:18:29;101861.44;;;14.97;64.92
29359;BME280;16347;53.232;6.556;2023-05-07T06:20:57;101860.72;;;14.95;64.83
29359;BME280;16347;53.232;6.556;2023-05-07T06:23:29;101865.84;;;14.90;64.75
29359;BME280;16347;53.232;6.556;2023-05-07T06:25:59;101865.97;;;14.88;64.95
29359;BME280;16347;53.232;6.556;2023-05-07T06:28:33;101868.41;;;14.92;65.45
29359;BME280;16347;53.232;6.556;2023-05-07T06:31:12;101868.13;;;15.03;65.57
29359;BME280;16347;53.232;6.556;2023-05-07T06:33:42;101873.06;;;14.99;65.25
29359;BME280;16347;53.232;6.556;2023-05-07T06:36:10;101873.44;;;15.04;65.51
29359;BME280;16347;53.232;6.556;2023-05-07T06:38:38;101868.00;;;15.12;64.83
29359;BME280;16347;53.232;6.556;2023-05-07T06:41:07;101877.56;;;15.08;64.88
29359;BME280;16347;53.232;6.556;2023-05-07T06:43:38;101890.78;;;15.13;64.97
29359;BME280;16347;53.232;6.556;2023-05-07T06:46:23;101875.88;;;15.15;65.07
29359;BME280;16347;53.232;6.556;2023-05-07T06:48:51;101878.63;;;15.15;64.33
29359;BME280;16347;53.232;6.556;2023-05-07T06:51:19;101890.31;;;15.17;64.29
29359;BME280;16347;53.232;6.556;2023-05-07T06:53:48;101890.78;;;15.13;64.34
29359;BME280;16347;53.232;6.556;2023-05-07T06:56:16;101887.84;;;15.14;64.12
29359;BME280;16347;53.232;6.556;2023-05-07T06:58:45;101894.75;;;15.18;64.27
29359;BME280;16347;53.232;6.556;2023-05-07T07:01:13;101905.50;;;15.12;63.95
29359;BME280;16347;53.232;6.556;2023-05-07T07:03:42;101909.41;;;15.09;64.22
29359;BME280;16347;53.232;6.556;2023-05-07T07:06:10;101908.03;;;15.05;64.19
29359;BME280;16347;53.232;6.556;2023-05-07T07:08:38;101915.34;;;14.97;63.64
29359;BME280;16347;53.232;6.556;2023-05-07T07:11:08;101913.94;;;14.93;64.13
29359;BME280;16347;53.232;6.556;2023-05-07T07:13:36;101924.91;;;14.93;64.44
29359;BME280;16347;53.232;6.556;2023-05-07T07:16:06;101925.88;;;14.83;64.27
29359;BME280;16347;53.232;6.556;2023-05-07T07:18:34;101927.25;;;14.87;64.36
29359;BME280;16347;53.232;6.556;2023-05-07T07:21:03;101924.22;;;14.91;63.89
29359;BME280;16347;53.232;6.556;2023-05-07T07:23:32;101931.19;;;14.67;63.89
29359;BME280;16347;53.232;6.556;2023-05-07T07:26:00;101935.56;;;14.78;64.25
29359;BME280;16347;53.232;6.556;2023-05-07T07:28:28;101935.63;;;14.86;64.63
29359;BME280;16347;53.232;6.556;2023-05-07T07:30:55;101927.63;;;14.93;64.43
29359;BME280;16347;53.232;6.556;2023-05-07T07:33:25;101925.75;;;14.93;64.21
29359;BME280;16347;53.232;6.556;2023-05-07T07:35:53;101931.06;;;14.95;64.17
29359;BME280;16347;53.232;6.556;2023-05-07T07:38:21;101928.84;;;14.98;64.10
29359;BME280;16347;53.232;6.556;2023-05-07T07:40:49;101931.59;;;14.98;63.86
29359;BME280;16347;53.232;6.556;2023-05-07T07:43:17;101932.09;;;14.94;64.20
29359;BME280;16347;53.232;6.556;2023-05-07T07:45:45;101932.31;;;15.00;64.15
29359;BME280;16347;53.232;6.556;2023-05-07T07:48:13;101929.41;;;15.02;64.22
29359;BME280;16347;53.232;6.556;2023-05-07T07:50:43;101930.13;;;15.04;64.43
29359;BME280;16347;53.232;6.556;2023-05-07T07:53:14;101926.72;;;15.10;64.36
29359;BME280;16347;53.232;6.556;2023-05-07T07:55:42;101929.78;;;15.07;64.36
29359;BME280;16347;53.232;6.556;2023-05-07T07:58:13;101921.56;;;15.07;64.26
29359;BME280;16347;53.232;6.556;2023-05-07T08:00:41;101927.94;;;15.15;63.89
29359;BME280;16347;53.232;6.556;2023-05-07T08:03:10;101926.72;;;15.10;64.26
29359;BME280;16347;53.232;6.556;2023-05-07T08:05:44;101925.75;;;15.19;64.29
29359;BME280;16347;53.232;6.556;2023-05-07T08:08:12;101924.53;;;15.21;64.39
29359;BME280;16347;53.232;6.556;2023-05-07T08:10:42;101935.69;;;15.20;64.04
29359;BME280;16347;53.232;6.556;2023-05-07T08:13:18;101929.19;;;15.21;64.18
29359;BME280;16347;53.232;6.556;2023-05-07T08:15:46;101926.28;;;15.22;64.28
29359;BME280;16347;53.232;6.556;2023-05-07T08:18:15;101916.50;;;15.20;64.50
29359;BME280;16347;53.232;6.556;2023-05-07T08:20:46;101925.91;;;15.17;64.27
29359;BME280;16347;53.232;6.556;2023-05-07T08:23:19;101925.09;;;15.25;64.48
29359;BME280;16347;53.232;6.556;2023-05-07T08:25:47;101926.66;;;15.27;64.49
29359;BME280;16347;53.232;6.556;2023-05-07T08:28:17;101929.19;;;15.21;64.29
29359;BME280;16347;53.232;6.556;2023-05-07T08:30:47;101931.09;;;15.28;64.03
29359;BME280;16347;53.232;6.556;2023-05-07T08:33:15;101935.41;;;15.31;64.23
29359;BME280;16347;53.232;6.556;2023-05-07T08:35:43;101927.28;;;15.21;63.98
29359;BME280;16347;53.232;6.556;2023-05-07T08:38:14;101931.81;;;15.30;64.02
29359;BME280;16347;53.232;6.556;2023-05-07T08:40:42;101927.56;;;15.36;63.79
29359;BME280;16347;53.232;6.556;2023-05-07T08:43:16;101935.09;;;15.34;64.24
29359;BME280;16347;53.232;6.556;2023-05-07T08:45:48;101944.56;;;15.48;64.41
29359;BME280;16347;53.232;6.556;2023-05-07T08:48:22;101929.56;;;15.60;64.48
29359;BME280;16347;53.232;6.556;2023-05-07T08:51:03;101944.69;;;15.64;63.72
29359;BME280;16347;53.232;6.556;2023-05-07T08:53:33;101940.13;;;15.47;63.79
29359;BME280;16347;53.232;6.556;2023-05-07T08:56:02;101950.13;;;15.56;63.58
29359;BME280;16347;53.232;6.556;2023-05-07T08:58:31;101949.44;;;15.62;63.68
29359;BME280;16347;53.232;6.556;2023-05-07T09:01:00;101946.59;;;15.46;63.77
29359;BME280;16347;53.232;6.556;2023-05-07T09:03:31;101946.38;;;15.65;63.67
29359;BME280;16347;53.232;6.556;2023-05-07T09:05:59;101940.94;;;15.73;63.81
29359;BME280;16347;53.232;6.556;2023-05-07T09:08:28;101944.06;;;15.78;63.58
29359;BME280;16347;53.232;6.556;2023-05-07T09:11:01;101936.84;;;15.77;63.15
29359;BME280;16347;53.232;6.556;2023-05-07T09:13:29;101938.56;;;15.78;63.18
29359;BME280;16347;53.232;6.556;2023-05-07T09:16:10;101937.72;;;15.85;62.97
29359;BME280;16347;53.232;6.556;2023-05-07T09:18:43;101937.72;;;15.77;63.09
29359;BME280;16347;53.232;6.556;2023-05-07T09:21:15;101949.22;;;15.89;63.30
29359;BME280;16347;53.232;6.556;2023-05-07T09:23:45;101944.41;;;15.83;62.48
29359;BME280;16347;53.232;6.556;2023-05-07T09:26:14;101958.97;;;15.83;62.64
29359;BME280;16347;53.232;6.556;2023-05-07T09:28:43;101962.91;;;15.81;63.59
29359;BME280;16347;53.232;6.556;2023-05-07T09:31:13;101952.81;;;15.89;63.32
29359;BME280;16347;53.232;6.556;2023-05-07T09:33:42;101947.00;;;15.93;62.68
29359;BME280;16347;53.232;6.556;2023-05-07T09:36:12;101950.97;;;15.98;63.04
29359;BME280;16347;53.232;6.556;2023-05-07T09:38:41;101944.28;;;16.09;62.70
29359;BME280;16347;53.232;6.556;2023-05-07T09:41:10;101943.81;;;16.13;63.02
29359;BME280;16347;53.232;6.556;2023-05-07T09:43:54;101937.47;;;16.21;62.67
29359;BME280;16347;53.232;6.556;2023-05-07T09:46:30;101936.28;;;16.23;62.21
29359;BME280;16347;53.232;6.556;2023-05-07T09:49:07;101936.31;;;16.31;62.63
29359;BME280;16347;53.232;6.556;2023-05-07T09:51:41;101932.34;;;16.34;62.61
29359;BME280;16347;53.232;6.556;2023-05-07T09:54:10;101931.16;;;16.45;62.64
29359;BME280;16347;53.232;6.556;2023-05-07T09:56:43;101932.50;;;16.49;62.58
29359;BME280;16347;53.232;6.556;2023-05-07T09:59:15;101931.16;;;16.53;62.57
29359;BME280;16347;53.232;6.556;2023-05-07T10:01:45;101927.53;;;16.52;61.76
29359;BME280;16347;53.232;6.556;2023-05-07T10:04:13;101930.84;;;16.56;61.23
29359;BME280;16347;53.232;6.556;2023-05-07T10:06:44;101934.59;;;16.55;61.85
29359;BME280;16347;53.232;6.556;2023-05-07T10:09:12;101929.66;;;16.58;61.81
29359;BME280;16347;53.232;6.556;2023-05-07T10:11:42;101933.06;;;16.60;61.77
29359;BME280;16347;53.232;6.556;2023-05-07T10:14:13;101939.59;;;16.67;61.50
29359;BME280;16347;53.232;6.556;2023-05-07T10:16:43;101938.72;;;16.59;61.47
29359;BME280;16347;53.232;6.556;2023-05-07T10:19:15;101934.44;;;16.48;60.61
29359;BME280;16347;53.232;6.556;2023-05-07T10:21:51;101946.09;;;16.50;61.32
29359;BME280;16347;53.232;6.556;2023-05-07T10:24:26;101949.69;;;16.34;61.15
29359;BME280;16347;53.232;6.556;2023-05-07T10:26:56;101952.09;;;16.37;61.07
29359;BME280;16347;53.232;6.556;2023-05-07T10:29:34;101948.13;;;16.40;61.42
29359;BME280;16347;53.232;6.556;2023-05-07T10:32:20;101946.94;;;16.42;61.17
29359;BME280;16347;53.232;6.556;2023-05-07T10:34:54;101944.88;;;16.45;61.40
29359;BME280;16347;53.232;6.556;2023-05-07T10:37:25;101943.19;;;16.52;61.77
29359;BME280;16347;53.232;6.556;2023-05-07T10:39:54;101950.91;;;16.56;61.79
29359;BME280;16347;53.232;6.556;2023-05-07T10:42:22;101949.72;;;16.59;61.88
29359;BME280;16347;53.232;6.556;2023-05-07T10:44:54;101954.19;;;16.60;61.47
29359;BME280;16347;53.232;6.556;2023-05-07T10:47:27;101958.81;;;16.59;61.67
29359;BME280;16347;53.232;6.556;2023-05-07T10:50:29;101956.44;;;16.64;61.64
29359;BME280;16347;53.232;6.556;2023-05-07T10:53:23;101954.53;;;16.73;61.30
29359;BME280;16347;53.232;6.556;2023-05-07T10:56:26;101951.28;;;16.77;61.65
29359;BME280;16347;53.232;6.556;2023-05-07T10:59:30;101953.31;;;16.83;61.13
29359;BME280;16347;53.232;6.556;2023-05-07T11:02:14;101941.84;;;16.88;61.52
29359;BME280;16347;53.232;6.556;2023-05-07T11:05:18;101935.28;;;17.05;61.79
29359;BME280;16347;53.232;6.556;2023-05-07T11:07:58;101934.78;;;17.02;61.06
29359;BME280;16347;53.232;6.556;2023-05-07T11:10:49;101941.41;;;17.23;61.37
29359;BME280;16347;53.232;6.556;2023-05-07T11:13:43;101930.75;;;17.28;61.75
29359;BME280;16347;53.232;6.556;2023-05-07T11:16:23;101926.94;;;17.37;61.50
29359;BME280;16347;53.232;6.556;2023-05-07T11:19:06;101927.25;;;17.51;60.88
29359;BME280;16347;53.232;6.556;2023-05-07T11:21:41;101926.19;;;17.60;60.82
29359;BME280;16347;53.232;6.556;2023-05-07T11:24:39;101929.31;;;17.57;60.00
29359;BME280;16347;53.232;6.556;2023-05-07T11:27:08;101920.19;;;17.56;61.41
29359;BME280;16347;53.232;6.556;2023-05-07T11:29:36;101914.66;;;17.64;60.77
29359;BME280;16347;53.232;6.556;2023-05-07T11:32:08;101918.59;;;17.70;60.24
29359;BME280;16347;53.232;6.556;2023-05-07T11:34:44;101924.59;;;17.73;60.57
29359;BME280;16347;53.232;6.556;2023-05-07T11:37:16;101923.72;;;17.73;59.77
29359;BME280;16347;53.232;6.556;2023-05-07T11:40:03;101924.78;;;17.72;59.45
29359;BME280;16347;53.232;6.556;2023-05-07T11:42:36;101930.28;;;17.72;59.11
29359;BME280;16347;53.232;6.556;2023-05-07T11:45:07;101934.53;;;17.82;59.75
29359;BME280;16347;53.232;6.556;2023-05-07T11:47:37;101936.38;;;17.90;60.23
29359;BME280;16347;53.232;6.556;2023-05-07T11:50:09;101928.06;;;17.98;60.41
29359;BME280;16347;53.232;6.556;2023-05-07T11:52:37;101942.13;;;18.03;60.81
29359;BME280;16347;53.232;6.556;2023-05-07T11:55:07;101936.22;;;18.14;60.20
29359;BME280;16347;53.232;6.556;2023-05-07T11:57:35;101940.88;;;18.14;59.33
29359;BME280;16347;53.232;6.556;2023-05-07T12:00:04;101937.56;;;18.26;59.04
29359;BME280;16347;53.232;6.556;2023-05-07T12:02:41;101935.94;;;18.32;60.26
29359;BME280;16347;53.232;6.556;2023-05-07T12:05:11;101935.34;;;18.44;59.71
29359;BME280;16347;53.232;6.556;2023-05-07T12:07:39;101945.75;;;18.57;59.54
29359;BME280;16347;53.232;6.556;2023-05-07T12:10:08;101939.16;;;18.66;59.29
29359;BME280;16347;53.232;6.556;2023-05-07T12:12:39;101946.19;;;18.69;58.73
29359;BME280;16347;53.232;6.556;2023-05-07T12:15:09;101943.06;;;18.72;57.38
29359;BME280;16347;53.232;6.556;2023-05-07T12:17:38;101942.63;;;18.83;58.04
29359;BME280;16347;53.232;6.556;2023-05-07T12:20:08;101941.78;;;18.97;58.43
29359;BME280;16347;53.232;6.556;2023-05-07T12:22:38;101949.50;;;19.02;57.62
29359;BME280;16347;53.232;6.556;2023-05-07T12:25:06;101943.13;;;19.01;56.38
29359;BME280;16347;53.232;6.556;2023-05-07T12:27:37;101937.50;;;18.94;56.24
29359;BME280;16347;53.232;6.556;2023-05-07T12:30:06;101945.66;;;18.88;56.67
29359;BME280;16347;53.232;6.556;2023-05-07T12:32:37;101941.41;;;18.85;57.09
29359;BME280;16347;53.232;6.556;2023-05-07T12:35:06;101939.78;;;18.91;56.73
29359;BME280;16347;53.232;6.556;2023-05-07T12:37:35;101946.47;;;18.97;57.07
29359;BME280;16347;53.232;6.556;2023-05-07T12:40:06;101937.03;;;18.91;56.10
29359;BME280;16347;53.232;6.556;2023-05-07T12:42:36;101937.22;;;18.89;56.76
29359;BME280;16347;53.232;6.556;2023-05-07T12:45:08;101936.28;;;18.97;57.13
29359;BME280;16347;53.232;6.556;2023-05-07T12:47:37;101940.47;;;18.93;56.53
29359;BME280;16347;53.232;6.556;2023-05-07T12:50:06;101944.84;;;19.02;56.96
29359;BME280;16347;53.232;6.556;2023-05-07T12:52:34;101944.97;;;19.09;56.60
29359;BME280;16347;53.232;6.556;2023-05-07T12:55:06;101942.50;;;19.14;56.65
29359;BME280;16347;53.232;6.556;2023-05-07T12:57:39;101938.50;;;19.31;56.37
29359;BME280;16347;53.232;6.556;2023-05-07T13:00:08;101945.19;;;19.51;56.94
29359;BME280;16347;53.232;6.556;2023-05-07T13:02:38;101936.75;;;19.67;55.81
29359;BME280;16347;53.232;6.556;2023-05-07T13:05:08;101941.47;;;19.88;55.57
29359;BME280;16347;53.232;6.556;2023-05-07T13:07:36;101938.59;;;19.96;55.49
29359;BME280;16347;53.232;6.556;2023-05-07T13:10:07;101934.94;;;20.10;54.87